sensor_id;sensor_type;location;lat;lon;timestamp;P1;durP1;ratioP1;P2;durP2;ratioP2
12968;SDS011;6549;53.128;8.182;2022-12-07T00:00:42;16.77;;;8.85;;
12968;SDS011;6549;53.128;8.182;2022-12-07T00:03:43;16.17;;;8.77;;
12968;SDS011;6549;53.128;8.182;2022-12-07T00:06:45;16.85;;;8.60;;
12968;SDS011;6549;53.128;8.182;2022-12-07T00:09:47;14.93;;;8.40;;
12968;SDS011;6549;53.128;8.182;2022-12-07T00:12:47;17.48;;;8.68;;
12968;SDS011;6549;53.128;8.182;2022-12-07T00:15:47;15.50;;;7.95;;
12968;SDS011;6549;53.128;8.182;2022-12-07T00:18:48;13.80;;;7.63;;
12968;SDS011;6549;53.128;8.182;2022-12-07T00:21:48;13.55;;;7.47;;
12968;SDS011;6549;53.128;8.182;2022-12-07T00:24:48;12.00;;;6.35;;
12968;SDS011;6549;53.128;8.182;2022-12-07T00:27:49;15.27;;;7.75;;
12968;SDS011;6549;53.128;8.182;2022-12-07T00:30:49;12.57;;;6.50;;
12968;SDS011;6549;53.128;8.182;2022-12-07T00:33:49;11.13;;;6.20;;
12968;SDS011;6549;53.128;8.182;2022-12-07T00:36:50;12.18;;;6.18;;
12968;SDS011;6549;53.128;8.182;2022-12-07T00:39:50;12.32;;;6.53;;
12968;SDS011;6549;53.128;8.182;2022-12-07T00:42:51;10.55;;;5.35;;
12968;SDS011;6549;53.128;8.182;2022-12-07T00:45:51;12.32;;;5.63;;
12968;SDS011;6549;53.128;8.182;2022-12-07T00:48:52;11.82;;;5.53;;
12968;SDS011;6549;53.128;8.182;2022-12-07T00:51:53;11.60;;;5.22;;
12968;SDS011;6549;53.128;8.182;2022-12-07T00:54:53;8.68;;;4.35;;
12968;SDS011;6549;53.128;8.182;2022-12-07T00:57:54;9.98;;;4.65;;
12968;SDS011;6549;53.128;8.182;2022-12-07T01:00:54;8.63;;;4.30;;
12968;SDS011;6549;53.128;8.182;2022-12-07T01:04:00;8.10;;;4.10;;
12968;SDS011;6549;53.128;8.182;2022-12-07T01:07:01;9.70;;;4.22;;
12968;SDS011;6549;53.128;8.182;2022-12-07T01:10:01;7.55;;;3.63;;
12968;SDS011;6549;53.128;8.182;2022-12-07T01:13:02;12.82;;;4.55;;
12968;SDS011;6549;53.128;8.182;2022-12-07T01:16:03;8.88;;;4.28;;
12968;SDS011;6549;53.128;8.182;2022-12-07T01:19:05;9.65;;;4.28;;
12968;SDS011;6549;53.128;8.182;2022-12-07T01:22:05;10.43;;;4.20;;
12968;SDS011;6549;53.128;8.182;2022-12-07T01:25:06;12.43;;;5.38;;
12968;SDS011;6549;53.128;8.182;2022-12-07T01:28:07;8.77;;;4.47;;
12968;SDS011;6549;53.128;8.182;2022-12-07T01:31:09;14.65;;;5.07;;
12968;SDS011;6549;53.128;8.182;2022-12-07T01:34:16;10.38;;;4.72;;
12968;SDS011;6549;53.128;8.182;2022-12-07T01:37:16;11.55;;;5.07;;
12968;SDS011;6549;53.128;8.182;2022-12-07T01:40:17;13.10;;;5.30;;
12968;SDS011;6549;53.128;8.182;2022-12-07T01:43:17;14.32;;;5.97;;
12968;SDS011;6549;53.128;8.182;2022-12-07T01:46:19;15.13;;;6.95;;
12968;SDS011;6549;53.128;8.182;2022-12-07T01:52:30;16.40;;;7.40;;
12968;SDS011;6549;53.128;8.182;2022-12-07T01:55:34;18.92;;;6.60;;
12968;SDS011;6549;53.128;8.182;2022-12-07T01:58:40;14.85;;;6.50;;
12968;SDS011;6549;53.128;8.182;2022-12-07T02:01:41;12.77;;;6.03;;
12968;SDS011;6549;53.128;8.182;2022-12-07T02:04:42;12.45;;;6.40;;
12968;SDS011;6549;53.128;8.182;2022-12-07T02:07:43;13.35;;;6.20;;
12968;SDS011;6549;53.128;8.182;2022-12-07T02:10:47;13.73;;;6.32;;
12968;SDS011;6549;53.128;8.182;2022-12-07T02:13:48;11.35;;;5.75;;
12968;SDS011;6549;53.128;8.182;2022-12-07T02:20:24;13.97;;;6.60;;
12968;SDS011;6549;53.128;8.182;2022-12-07T02:30:12;14.68;;;7.43;;
12968;SDS011;6549;53.128;8.182;2022-12-07T02:36:52;13.85;;;6.68;;
12968;SDS011;6549;53.128;8.182;2022-12-07T02:43:16;15.27;;;6.85;;
12968;SDS011;6549;53.128;8.182;2022-12-07T02:46:27;12.85;;;6.28;;
12968;SDS011;6549;53.128;8.182;2022-12-07T02:49:31;12.80;;;6.50;;
12968;SDS011;6549;53.128;8.182;2022-12-07T02:52:32;13.40;;;6.30;;
12968;SDS011;6549;53.128;8.182;2022-12-07T02:55:37;12.93;;;6.03;;
12968;SDS011;6549;53.128;8.182;2022-12-07T03:11:52;10.38;;;4.15;;
12968;SDS011;6549;53.128;8.182;2022-12-07T03:15:03;13.30;;;4.20;;
12968;SDS011;6549;53.128;8.182;2022-12-07T03:18:09;7.05;;;3.08;;
12968;SDS011;6549;53.128;8.182;2022-12-07T03:21:14;7.65;;;2.50;;
12968;SDS011;6549;53.128;8.182;2022-12-07T03:24:20;6.05;;;2.10;;
12968;SDS011;6549;53.128;8.182;2022-12-07T03:27:25;15.43;;;2.67;;
12968;SDS011;6549;53.128;8.182;2022-12-07T03:30:39;7.38;;;2.30;;
12968;SDS011;6549;53.128;8.182;2022-12-07T03:33:49;5.80;;;2.30;;
12968;SDS011;6549;53.128;8.182;2022-12-07T03:37:11;5.05;;;2.33;;
12968;SDS011;6549;53.128;8.182;2022-12-07T03:40:48;10.93;;;2.88;;
12968;SDS011;6549;53.128;8.182;2022-12-07T03:43:53;6.38;;;2.10;;
12968;SDS011;6549;53.128;8.182;2022-12-07T03:47:02;4.90;;;1.60;;
12968;SDS011;6549;53.128;8.182;2022-12-07T03:50:11;8.77;;;1.90;;
12968;SDS011;6549;53.128;8.182;2022-12-07T03:53:21;6.30;;;1.33;;
12968;SDS011;6549;53.128;8.182;2022-12-07T03:56:29;9.32;;;1.70;;
12968;SDS011;6549;53.128;8.182;2022-12-07T03:59:32;9.68;;;1.70;;
12968;SDS011;6549;53.128;8.182;2022-12-07T04:02:33;4.85;;;2.13;;
12968;SDS011;6549;53.128;8.182;2022-12-07T04:05:36;5.60;;;1.48;;
12968;SDS011;6549;53.128;8.182;2022-12-07T04:08:40;2.20;;;1.10;;
12968;SDS011;6549;53.128;8.182;2022-12-07T04:11:44;3.38;;;1.33;;
12968;SDS011;6549;53.128;8.182;2022-12-07T04:14:44;3.47;;;1.88;;
12968;SDS011;6549;53.128;8.182;2022-12-07T04:17:44;5.20;;;1.30;;
12968;SDS011;6549;53.128;8.182;2022-12-07T04:20:45;6.57;;;1.35;;
12968;SDS011;6549;53.128;8.182;2022-12-07T04:23:46;9.23;;;2.17;;
12968;SDS011;6549;53.128;8.182;2022-12-07T04:26:46;6.07;;;1.10;;
12968;SDS011;6549;53.128;8.182;2022-12-07T04:29:47;3.72;;;1.10;;
12968;SDS011;6549;53.128;8.182;2022-12-07T04:32:47;5.40;;;1.20;;
12968;SDS011;6549;53.128;8.182;2022-12-07T04:35:48;5.32;;;1.30;;
12968;SDS011;6549;53.128;8.182;2022-12-07T04:38:48;5.93;;;1.10;;
12968;SDS011;6549;53.128;8.182;2022-12-07T04:41:48;2.45;;;0.90;;
12968;SDS011;6549;53.128;8.182;2022-12-07T04:44:49;4.65;;;1.25;;
12968;SDS011;6549;53.128;8.182;2022-12-07T04:47:50;3.95;;;1.25;;
12968;SDS011;6549;53.128;8.182;2022-12-07T04:50:51;5.72;;;1.27;;
12968;SDS011;6549;53.128;8.182;2022-12-07T04:53:51;3.80;;;1.00;;
12968;SDS011;6549;53.128;8.182;2022-12-07T04:56:52;6.15;;;1.27;;
12968;SDS011;6549;53.128;8.182;2022-12-07T04:59:53;2.50;;;1.10;;
12968;SDS011;6549;53.128;8.182;2022-12-07T05:02:53;8.38;;;1.30;;
12968;SDS011;6549;53.128;8.182;2022-12-07T05:05:53;3.80;;;1.38;;
12968;SDS011;6549;53.128;8.182;2022-12-07T05:08:54;3.72;;;0.90;;
12968;SDS011;6549;53.128;8.182;2022-12-07T05:11:54;8.40;;;1.35;;
12968;SDS011;6549;53.128;8.182;2022-12-07T05:14:54;5.60;;;1.25;;
12968;SDS011;6549;53.128;8.182;2022-12-07T05:17:55;4.85;;;1.30;;
12968;SDS011;6549;53.128;8.182;2022-12-07T05:20:55;4.13;;;1.08;;
12968;SDS011;6549;53.128;8.182;2022-12-07T05:23:56;6.13;;;1.23;;
12968;SDS011;6549;53.128;8.182;2022-12-07T05:26:56;3.83;;;1.10;;
12968;SDS011;6549;53.128;8.182;2022-12-07T05:29:56;7.97;;;1.10;;
12968;SDS011;6549;53.128;8.182;2022-12-07T05:32:57;3.47;;;1.00;;
12968;SDS011;6549;53.128;8.182;2022-12-07T05:35:57;5.85;;;1.10;;
12968;SDS011;6549;53.128;8.182;2022-12-07T05:38:58;3.72;;;1.10;;
12968;SDS011;6549;53.128;8.182;2022-12-07T05:41:58;3.30;;;1.00;;
12968;SDS011;6549;53.128;8.182;2022-12-07T05:45:14;5.35;;;1.08;;
12968;SDS011;6549;53.128;8.182;2022-12-07T05:48:15;3.58;;;0.90;;
12968;SDS011;6549;53.128;8.182;2022-12-07T05:51:15;3.63;;;0.80;;
12968;SDS011;6549;53.128;8.182;2022-12-07T05:54:15;4.43;;;1.00;;
12968;SDS011;6549;53.128;8.182;2022-12-07T05:57:16;3.58;;;1.27;;
12968;SDS011;6549;53.128;8.182;2022-12-07T06:00:16;2.55;;;1.17;;
12968;SDS011;6549;53.128;8.182;2022-12-07T06:03:16;4.60;;;1.25;;
12968;SDS011;6549;53.128;8.182;2022-12-07T06:06:17;6.85;;;1.60;;
12968;SDS011;6549;53.128;8.182;2022-12-07T06:09:18;9.15;;;1.45;;
12968;SDS011;6549;53.128;8.182;2022-12-07T06:12:19;3.33;;;1.30;;
12968;SDS011;6549;53.128;8.182;2022-12-07T06:15:38;4.15;;;1.00;;
12968;SDS011;6549;53.128;8.182;2022-12-07T06:18:38;2.55;;;0.85;;
12968;SDS011;6549;53.128;8.182;2022-12-07T06:21:38;4.15;;;1.08;;
12968;SDS011;6549;53.128;8.182;2022-12-07T06:24:39;4.55;;;1.00;;
12968;SDS011;6549;53.128;8.182;2022-12-07T06:27:39;6.03;;;2.33;;
12968;SDS011;6549;53.128;8.182;2022-12-07T06:30:40;17.42;;;10.60;;
12968;SDS011;6549;53.128;8.182;2022-12-07T06:33:41;7.60;;;1.90;;
12968;SDS011;6549;53.128;8.182;2022-12-07T06:36:42;4.75;;;1.42;;
12968;SDS011;6549;53.128;8.182;2022-12-07T06:39:42;7.18;;;1.23;;
12968;SDS011;6549;53.128;8.182;2022-12-07T06:42:43;5.45;;;0.93;;
12968;SDS011;6549;53.128;8.182;2022-12-07T06:45:43;2.00;;;0.75;;
12968;SDS011;6549;53.128;8.182;2022-12-07T06:48:43;8.27;;;1.13;;
12968;SDS011;6549;53.128;8.182;2022-12-07T06:51:44;3.25;;;0.82;;
12968;SDS011;6549;53.128;8.182;2022-12-07T06:54:44;5.18;;;0.85;;
12968;SDS011;6549;53.128;8.182;2022-12-07T06:57:45;2.45;;;0.70;;
12968;SDS011;6549;53.128;8.182;2022-12-07T07:00:45;1.98;;;0.70;;
12968;SDS011;6549;53.128;8.182;2022-12-07T07:03:47;1.45;;;0.57;;
12968;SDS011;6549;53.128;8.182;2022-12-07T07:06:47;2.45;;;1.23;;
12968;SDS011;6549;53.128;8.182;2022-12-07T07:09:48;3.97;;;1.30;;
12968;SDS011;6549;53.128;8.182;2022-12-07T07:12:48;2.05;;;1.10;;
12968;SDS011;6549;53.128;8.182;2022-12-07T07:15:48;2.45;;;1.10;;
12968;SDS011;6549;53.128;8.182;2022-12-07T07:18:49;1.77;;;0.90;;
12968;SDS011;6549;53.128;8.182;2022-12-07T07:21:59;3.90;;;0.85;;
12968;SDS011;6549;53.128;8.182;2022-12-07T07:24:59;2.72;;;0.70;;
12968;SDS011;6549;53.128;8.182;2022-12-07T07:27:59;2.88;;;0.80;;
12968;SDS011;6549;53.128;8.182;2022-12-07T07:31:00;4.75;;;1.70;;
12968;SDS011;6549;53.128;8.182;2022-12-07T07:34:00;3.63;;;1.80;;
12968;SDS011;6549;53.128;8.182;2022-12-07T07:37:01;5.65;;;1.73;;
12968;SDS011;6549;53.128;8.182;2022-12-07T07:40:01;3.60;;;1.60;;
12968;SDS011;6549;53.128;8.182;2022-12-07T07:43:02;4.97;;;1.63;;
12968;SDS011;6549;53.128;8.182;2022-12-07T07:46:03;4.57;;;1.50;;
12968;SDS011;6549;53.128;8.182;2022-12-07T07:49:03;5.00;;;1.58;;
12968;SDS011;6549;53.128;8.182;2022-12-07T07:52:04;3.17;;;1.90;;
12968;SDS011;6549;53.128;8.182;2022-12-07T07:55:06;2.72;;;2.00;;
12968;SDS011;6549;53.128;8.182;2022-12-07T07:58:08;6.32;;;2.67;;
12968;SDS011;6549;53.128;8.182;2022-12-07T08:01:09;8.57;;;2.60;;
12968;SDS011;6549;53.128;8.182;2022-12-07T08:04:09;6.28;;;2.10;;
12968;SDS011;6549;53.128;8.182;2022-12-07T08:07:10;5.10;;;2.10;;
12968;SDS011;6549;53.128;8.182;2022-12-07T08:10:11;4.90;;;1.90;;
12968;SDS011;6549;53.128;8.182;2022-12-07T08:13:15;5.13;;;2.50;;
12968;SDS011;6549;53.128;8.182;2022-12-07T08:16:15;3.38;;;1.90;;
12968;SDS011;6549;53.128;8.182;2022-12-07T08:19:16;2.85;;;1.80;;
12968;SDS011;6549;53.128;8.182;2022-12-07T08:22:16;4.15;;;2.40;;
12968;SDS011;6549;53.128;8.182;2022-12-07T08:25:17;7.70;;;3.08;;
12968;SDS011;6549;53.128;8.182;2022-12-07T08:28:17;6.45;;;3.80;;
12968;SDS011;6549;53.128;8.182;2022-12-07T08:31:18;7.38;;;3.50;;
12968;SDS011;6549;53.128;8.182;2022-12-07T08:34:18;6.13;;;2.85;;
12968;SDS011;6549;53.128;8.182;2022-12-07T08:37:19;6.70;;;2.80;;
12968;SDS011;6549;53.128;8.182;2022-12-07T08:40:19;7.10;;;2.72;;
12968;SDS011;6549;53.128;8.182;2022-12-07T08:43:21;6.82;;;2.42;;
12968;SDS011;6549;53.128;8.182;2022-12-07T08:46:23;7.13;;;2.20;;
12968;SDS011;6549;53.128;8.182;2022-12-07T08:49:35;5.25;;;1.88;;
12968;SDS011;6549;53.128;8.182;2022-12-07T08:52:39;5.72;;;1.70;;
12968;SDS011;6549;53.128;8.182;2022-12-07T08:55:41;3.58;;;2.10;;
12968;SDS011;6549;53.128;8.182;2022-12-07T08:58:41;6.47;;;1.80;;
12968;SDS011;6549;53.128;8.182;2022-12-07T09:01:42;6.15;;;2.10;;
12968;SDS011;6549;53.128;8.182;2022-12-07T09:04:43;5.10;;;2.05;;
12968;SDS011;6549;53.128;8.182;2022-12-07T09:07:44;3.88;;;2.05;;
12968;SDS011;6549;53.128;8.182;2022-12-07T09:10:46;5.88;;;2.42;;
12968;SDS011;6549;53.128;8.182;2022-12-07T09:13:47;8.30;;;1.98;;
12968;SDS011;6549;53.128;8.182;2022-12-07T09:16:48;4.10;;;1.90;;
12968;SDS011;6549;53.128;8.182;2022-12-07T09:19:48;6.25;;;2.38;;
12968;SDS011;6549;53.128;8.182;2022-12-07T09:22:48;6.85;;;2.13;;
12968;SDS011;6549;53.128;8.182;2022-12-07T09:25:49;5.88;;;2.72;;
12968;SDS011;6549;53.128;8.182;2022-12-07T09:28:49;8.63;;;3.03;;
12968;SDS011;6549;53.128;8.182;2022-12-07T09:31:50;5.78;;;2.40;;
12968;SDS011;6549;53.128;8.182;2022-12-07T09:34:51;7.55;;;3.10;;
12968;SDS011;6549;53.128;8.182;2022-12-07T09:37:51;8.88;;;2.50;;
12968;SDS011;6549;53.128;8.182;2022-12-07T09:40:52;8.15;;;2.85;;
12968;SDS011;6549;53.128;8.182;2022-12-07T09:43:56;6.10;;;2.00;;
12968;SDS011;6549;53.128;8.182;2022-12-07T09:47:03;5.63;;;1.80;;
12968;SDS011;6549;53.128;8.182;2022-12-07T09:50:05;4.10;;;1.58;;
12968;SDS011;6549;53.128;8.182;2022-12-07T09:53:16;2.88;;;1.55;;
12968;SDS011;6549;53.128;8.182;2022-12-07T09:56:25;6.85;;;1.52;;
12968;SDS011;6549;53.128;8.182;2022-12-07T09:59:25;4.90;;;1.67;;
12968;SDS011;6549;53.128;8.182;2022-12-07T10:02:32;3.33;;;1.42;;
12968;SDS011;6549;53.128;8.182;2022-12-07T10:05:37;7.03;;;1.50;;
12968;SDS011;6549;53.128;8.182;2022-12-07T10:08:41;5.55;;;1.45;;
12968;SDS011;6549;53.128;8.182;2022-12-07T10:15:00;5.07;;;1.60;;
12968;SDS011;6549;53.128;8.182;2022-12-07T10:18:02;4.85;;;1.80;;
12968;SDS011;6549;53.128;8.182;2022-12-07T10:24:39;5.53;;;1.70;;
12968;SDS011;6549;53.128;8.182;2022-12-07T10:27:42;6.57;;;1.52;;
12968;SDS011;6549;53.128;8.182;2022-12-07T10:30:53;7.68;;;1.67;;
12968;SDS011;6549;53.128;8.182;2022-12-07T10:34:03;6.00;;;1.52;;
12968;SDS011;6549;53.128;8.182;2022-12-07T10:37:13;4.72;;;1.20;;
12968;SDS011;6549;53.128;8.182;2022-12-07T10:43:24;5.45;;;1.30;;
12968;SDS011;6549;53.128;8.182;2022-12-07T10:46:45;4.22;;;1.42;;
12968;SDS011;6549;53.128;8.182;2022-12-07T10:54:08;4.63;;;1.27;;
12968;SDS011;6549;53.128;8.182;2022-12-07T11:07:41;7.15;;;1.73;;
12968;SDS011;6549;53.128;8.182;2022-12-07T11:14:18;5.32;;;1.10;;
12968;SDS011;6549;53.128;8.182;2022-12-07T11:20:55;7.32;;;1.70;;
12968;SDS011;6549;53.128;8.182;2022-12-07T11:24:09;5.72;;;1.50;;
12968;SDS011;6549;53.128;8.182;2022-12-07T11:27:29;6.35;;;1.55;;
12968;SDS011;6549;53.128;8.182;2022-12-07T11:30:38;11.38;;;2.15;;
12968;SDS011;6549;53.128;8.182;2022-12-07T11:37:15;5.10;;;1.40;;
12968;SDS011;6549;53.128;8.182;2022-12-07T11:40:20;7.50;;;1.73;;
12968;SDS011;6549;53.128;8.182;2022-12-07T11:43:31;8.82;;;1.83;;
12968;SDS011;6549;53.128;8.182;2022-12-07T11:46:54;7.40;;;1.63;;
12968;SDS011;6549;53.128;8.182;2022-12-07T11:53:38;6.18;;;1.60;;
12968;SDS011;6549;53.128;8.182;2022-12-07T11:56:44;6.25;;;1.63;;
12968;SDS011;6549;53.128;8.182;2022-12-07T11:59:50;8.20;;;1.75;;
12968;SDS011;6549;53.128;8.182;2022-12-07T12:03:01;8.02;;;1.65;;
12968;SDS011;6549;53.128;8.182;2022-12-07T12:06:09;6.53;;;1.60;;
12968;SDS011;6549;53.128;8.182;2022-12-07T12:15:48;5.93;;;1.60;;
12968;SDS011;6549;53.128;8.182;2022-12-07T12:22:16;5.82;;;1.38;;
12968;SDS011;6549;53.128;8.182;2022-12-07T12:25:24;5.30;;;1.17;;
12968;SDS011;6549;53.128;8.182;2022-12-07T12:28:29;4.45;;;1.30;;
12968;SDS011;6549;53.128;8.182;2022-12-07T12:31:41;8.93;;;1.58;;
12968;SDS011;6549;53.128;8.182;2022-12-07T12:37:47;2.70;;;1.20;;
12968;SDS011;6549;53.128;8.182;2022-12-07T12:40:48;4.97;;;1.40;;
12968;SDS011;6549;53.128;8.182;2022-12-07T12:43:50;7.60;;;1.30;;
12968;SDS011;6549;53.128;8.182;2022-12-07T12:46:53;8.10;;;1.50;;
12968;SDS011;6549;53.128;8.182;2022-12-07T12:53:23;7.13;;;1.27;;
12968;SDS011;6549;53.128;8.182;2022-12-07T12:56:43;4.80;;;1.35;;
12968;SDS011;6549;53.128;8.182;2022-12-07T13:00:20;6.57;;;1.75;;
12968;SDS011;6549;53.128;8.182;2022-12-07T13:03:29;7.53;;;1.45;;
12968;SDS011;6549;53.128;8.182;2022-12-07T13:06:32;8.55;;;1.35;;
12968;SDS011;6549;53.128;8.182;2022-12-07T13:09:36;5.30;;;1.40;;
12968;SDS011;6549;53.128;8.182;2022-12-07T13:12:42;7.60;;;1.60;;
12968;SDS011;6549;53.128;8.182;2022-12-07T13:18:50;6.03;;;1.50;;
12968;SDS011;6549;53.128;8.182;2022-12-07T13:21:50;5.15;;;1.75;;
12968;SDS011;6549;53.128;8.182;2022-12-07T13:24:54;6.45;;;1.10;;
12968;SDS011;6549;53.128;8.182;2022-12-07T13:28:10;5.60;;;1.05;;
12968;SDS011;6549;53.128;8.182;2022-12-07T13:34:36;4.88;;;1.17;;
12968;SDS011;6549;53.128;8.182;2022-12-07T13:37:40;4.57;;;1.20;;
12968;SDS011;6549;53.128;8.182;2022-12-07T13:40:40;2.55;;;0.90;;
12968;SDS011;6549;53.128;8.182;2022-12-07T13:50:56;3.47;;;1.02;;
12968;SDS011;6549;53.128;8.182;2022-12-07T13:54:01;5.10;;;1.20;;
12968;SDS011;6549;53.128;8.182;2022-12-07T14:00:15;6.38;;;1.58;;
12968;SDS011;6549;53.128;8.182;2022-12-07T14:03:31;6.13;;;1.58;;
12968;SDS011;6549;53.128;8.182;2022-12-07T14:06:33;5.30;;;1.50;;
12968;SDS011;6549;53.128;8.182;2022-12-07T14:09:33;6.60;;;1.58;;
12968;SDS011;6549;53.128;8.182;2022-12-07T14:12:35;5.85;;;1.60;;
12968;SDS011;6549;53.128;8.182;2022-12-07T14:15:36;5.70;;;2.60;;
12968;SDS011;6549;53.128;8.182;2022-12-07T14:18:37;3.25;;;1.10;;
12968;SDS011;6549;53.128;8.182;2022-12-07T14:21:39;4.55;;;1.00;;
12968;SDS011;6549;53.128;8.182;2022-12-07T14:24:43;6.47;;;1.20;;
12968;SDS011;6549;53.128;8.182;2022-12-07T14:31:00;4.57;;;0.90;;
12968;SDS011;6549;53.128;8.182;2022-12-07T14:34:01;2.97;;;0.55;;
12968;SDS011;6549;53.128;8.182;2022-12-07T14:37:02;2.38;;;0.77;;
12968;SDS011;6549;53.128;8.182;2022-12-07T14:40:04;5.93;;;1.30;;
12968;SDS011;6549;53.128;8.182;2022-12-07T14:43:09;2.33;;;0.90;;
12968;SDS011;6549;53.128;8.182;2022-12-07T14:46:13;4.32;;;1.38;;
12968;SDS011;6549;53.128;8.182;2022-12-07T14:49:13;4.00;;;1.23;;
12968;SDS011;6549;53.128;8.182;2022-12-07T14:52:18;7.55;;;2.05;;
12968;SDS011;6549;53.128;8.182;2022-12-07T14:58:27;4.28;;;2.20;;
12968;SDS011;6549;53.128;8.182;2022-12-07T15:01:27;4.97;;;2.17;;
12968;SDS011;6549;53.128;8.182;2022-12-07T15:04:27;6.03;;;2.03;;
12968;SDS011;6549;53.128;8.182;2022-12-07T15:07:28;5.55;;;2.08;;
12968;SDS011;6549;53.128;8.182;2022-12-07T15:10:29;4.03;;;1.88;;
12968;SDS011;6549;53.128;8.182;2022-12-07T15:13:32;9.23;;;1.90;;
12968;SDS011;6549;53.128;8.182;2022-12-07T15:16:51;6.88;;;2.50;;
12968;SDS011;6549;53.128;8.182;2022-12-07T15:19:51;7.45;;;2.40;;
12968;SDS011;6549;53.128;8.182;2022-12-07T15:22:52;7.50;;;2.67;;
12968;SDS011;6549;53.128;8.182;2022-12-07T15:25:52;5.07;;;2.13;;
12968;SDS011;6549;53.128;8.182;2022-12-07T15:28:53;5.75;;;2.17;;
12968;SDS011;6549;53.128;8.182;2022-12-07T15:31:54;4.95;;;2.00;;
12968;SDS011;6549;53.128;8.182;2022-12-07T15:34:55;3.63;;;2.10;;
12968;SDS011;6549;53.128;8.182;2022-12-07T15:37:55;7.20;;;2.53;;
12968;SDS011;6549;53.128;8.182;2022-12-07T15:40:56;5.85;;;2.00;;
12968;SDS011;6549;53.128;8.182;2022-12-07T15:43:57;8.02;;;2.45;;
12968;SDS011;6549;53.128;8.182;2022-12-07T15:47:16;7.20;;;1.88;;
12968;SDS011;6549;53.128;8.182;2022-12-07T15:50:16;5.05;;;1.40;;
12968;SDS011;6549;53.128;8.182;2022-12-07T15:53:17;6.38;;;2.75;;
12968;SDS011;6549;53.128;8.182;2022-12-07T15:56:17;5.28;;;1.45;;
12968;SDS011;6549;53.128;8.182;2022-12-07T15:59:17;3.20;;;1.40;;
12968;SDS011;6549;53.128;8.182;2022-12-07T16:02:18;4.15;;;2.03;;
12968;SDS011;6549;53.128;8.182;2022-12-07T16:05:18;3.15;;;1.40;;
12968;SDS011;6549;53.128;8.182;2022-12-07T16:08:19;5.25;;;1.55;;
12968;SDS011;6549;53.128;8.182;2022-12-07T16:11:19;2.05;;;1.70;;
12968;SDS011;6549;53.128;8.182;2022-12-07T16:14:20;5.13;;;3.58;;
12968;SDS011;6549;53.128;8.182;2022-12-07T16:17:21;4.50;;;2.60;;
12968;SDS011;6549;53.128;8.182;2022-12-07T16:20:21;3.75;;;2.15;;
12968;SDS011;6549;53.128;8.182;2022-12-07T16:23:21;3.60;;;2.08;;
12968;SDS011;6549;53.128;8.182;2022-12-07T16:26:22;3.45;;;1.85;;
12968;SDS011;6549;53.128;8.182;2022-12-07T16:29:22;4.78;;;3.00;;
12968;SDS011;6549;53.128;8.182;2022-12-07T16:32:23;5.45;;;2.70;;
12968;SDS011;6549;53.128;8.182;2022-12-07T16:35:23;4.07;;;2.20;;
12968;SDS011;6549;53.128;8.182;2022-12-07T16:38:24;6.95;;;2.90;;
12968;SDS011;6549;53.128;8.182;2022-12-07T16:41:24;8.00;;;2.90;;
12968;SDS011;6549;53.128;8.182;2022-12-07T16:44:24;6.93;;;2.67;;
12968;SDS011;6549;53.128;8.182;2022-12-07T16:47:25;4.68;;;2.13;;
12968;SDS011;6549;53.128;8.182;2022-12-07T16:50:25;6.22;;;2.90;;
12968;SDS011;6549;53.128;8.182;2022-12-07T16:53:26;7.72;;;3.35;;
12968;SDS011;6549;53.128;8.182;2022-12-07T16:56:26;7.63;;;3.08;;
12968;SDS011;6549;53.128;8.182;2022-12-07T16:59:28;6.80;;;2.87;;
12968;SDS011;6549;53.128;8.182;2022-12-07T17:02:29;6.00;;;2.70;;
12968;SDS011;6549;53.128;8.182;2022-12-07T17:05:29;4.93;;;2.22;;
12968;SDS011;6549;53.128;8.182;2022-12-07T17:08:30;7.55;;;2.33;;
12968;SDS011;6549;53.128;8.182;2022-12-07T17:11:30;8.52;;;2.92;;
12968;SDS011;6549;53.128;8.182;2022-12-07T17:14:31;5.38;;;2.65;;
12968;SDS011;6549;53.128;8.182;2022-12-07T17:17:53;6.65;;;3.03;;
12968;SDS011;6549;53.128;8.182;2022-12-07T17:20:55;5.40;;;2.20;;
12968;SDS011;6549;53.128;8.182;2022-12-07T17:23:57;7.78;;;2.33;;
12968;SDS011;6549;53.128;8.182;2022-12-07T17:26:59;5.60;;;2.55;;
12968;SDS011;6549;53.128;8.182;2022-12-07T17:29:59;4.35;;;2.50;;
12968;SDS011;6549;53.128;8.182;2022-12-07T17:32:59;6.22;;;3.30;;
12968;SDS011;6549;53.128;8.182;2022-12-07T17:36:00;5.97;;;3.10;;
12968;SDS011;6549;53.128;8.182;2022-12-07T17:39:00;5.65;;;3.20;;
12968;SDS011;6549;53.128;8.182;2022-12-07T17:42:02;7.07;;;3.43;;
12968;SDS011;6549;53.128;8.182;2022-12-07T17:45:21;8.07;;;3.75;;
12968;SDS011;6549;53.128;8.182;2022-12-07T17:48:21;8.55;;;3.45;;
12968;SDS011;6549;53.128;8.182;2022-12-07T17:51:22;5.78;;;2.95;;
12968;SDS011;6549;53.128;8.182;2022-12-07T17:54:41;7.65;;;3.63;;
12968;SDS011;6549;53.128;8.182;2022-12-07T17:57:42;9.73;;;5.68;;
12968;SDS011;6549;53.128;8.182;2022-12-07T18:00:42;12.60;;;5.88;;
12968;SDS011;6549;53.128;8.182;2022-12-07T18:03:42;12.85;;;4.38;;
12968;SDS011;6549;53.128;8.182;2022-12-07T18:06:43;9.10;;;3.50;;
12968;SDS011;6549;53.128;8.182;2022-12-07T18:09:43;7.93;;;3.35;;
12968;SDS011;6549;53.128;8.182;2022-12-07T18:12:43;6.68;;;2.92;;
12968;SDS011;6549;53.128;8.182;2022-12-07T18:15:44;6.45;;;2.70;;
12968;SDS011;6549;53.128;8.182;2022-12-07T18:18:44;5.78;;;2.47;;
12968;SDS011;6549;53.128;8.182;2022-12-07T18:21:45;4.88;;;2.60;;
12968;SDS011;6549;53.128;8.182;2022-12-07T18:24:46;5.43;;;3.00;;
12968;SDS011;6549;53.128;8.182;2022-12-07T18:27:46;6.03;;;3.00;;
12968;SDS011;6549;53.128;8.182;2022-12-07T18:30:47;5.10;;;2.70;;
12968;SDS011;6549;53.128;8.182;2022-12-07T18:33:50;4.43;;;2.50;;
12968;SDS011;6549;53.128;8.182;2022-12-07T18:36:51;4.93;;;2.50;;
12968;SDS011;6549;53.128;8.182;2022-12-07T18:39:52;5.95;;;3.17;;
12968;SDS011;6549;53.128;8.182;2022-12-07T18:42:54;6.25;;;3.50;;
12968;SDS011;6549;53.128;8.182;2022-12-07T18:45:54;7.35;;;4.15;;
12968;SDS011;6549;53.128;8.182;2022-12-07T18:48:55;8.32;;;4.30;;
12968;SDS011;6549;53.128;8.182;2022-12-07T18:51:59;5.97;;;3.85;;
12968;SDS011;6549;53.128;8.182;2022-12-07T18:54:59;6.80;;;3.85;;
12968;SDS011;6549;53.128;8.182;2022-12-07T18:58:02;5.63;;;3.60;;
12968;SDS011;6549;53.128;8.182;2022-12-07T19:01:03;6.15;;;3.85;;
12968;SDS011;6549;53.128;8.182;2022-12-07T19:04:04;5.55;;;3.33;;
12968;SDS011;6549;53.128;8.182;2022-12-07T19:07:04;5.90;;;3.67;;
12968;SDS011;6549;53.128;8.182;2022-12-07T19:10:05;6.20;;;3.97;;
12968;SDS011;6549;53.128;8.182;2022-12-07T19:13:07;6.55;;;4.78;;
12968;SDS011;6549;53.128;8.182;2022-12-07T19:16:27;6.90;;;4.32;;
12968;SDS011;6549;53.128;8.182;2022-12-07T19:19:34;5.45;;;3.75;;
12968;SDS011;6549;53.128;8.182;2022-12-07T19:22:36;7.45;;;4.07;;
12968;SDS011;6549;53.128;8.182;2022-12-07T19:25:38;6.50;;;4.10;;
12968;SDS011;6549;53.128;8.182;2022-12-07T19:28:39;7.22;;;4.38;;
12968;SDS011;6549;53.128;8.182;2022-12-07T19:31:39;7.90;;;4.03;;
12968;SDS011;6549;53.128;8.182;2022-12-07T19:34:40;8.63;;;4.65;;
12968;SDS011;6549;53.128;8.182;2022-12-07T19:37:42;7.57;;;4.85;;
12968;SDS011;6549;53.128;8.182;2022-12-07T19:40:42;8.00;;;5.20;;
12968;SDS011;6549;53.128;8.182;2022-12-07T19:43:42;8.27;;;5.30;;
12968;SDS011;6549;53.128;8.182;2022-12-07T19:46:43;8.57;;;5.85;;
12968;SDS011;6549;53.128;8.182;2022-12-07T19:49:45;8.77;;;5.20;;
12968;SDS011;6549;53.128;8.182;2022-12-07T19:52:46;10.43;;;7.10;;
12968;SDS011;6549;53.128;8.182;2022-12-07T19:55:46;8.57;;;5.75;;
12968;SDS011;6549;53.128;8.182;2022-12-07T19:58:47;8.80;;;6.50;;
12968;SDS011;6549;53.128;8.182;2022-12-07T20:01:47;9.65;;;6.55;;
12968;SDS011;6549;53.128;8.182;2022-12-07T20:04:48;8.23;;;5.93;;
12968;SDS011;6549;53.128;8.182;2022-12-07T20:07:48;8.85;;;5.68;;
12968;SDS011;6549;53.128;8.182;2022-12-07T20:10:49;9.38;;;6.22;;
12968;SDS011;6549;53.128;8.182;2022-12-07T20:13:50;9.80;;;6.13;;
12968;SDS011;6549;53.128;8.182;2022-12-07T20:16:50;16.10;;;5.72;;
12968;SDS011;6549;53.128;8.182;2022-12-07T20:19:51;7.68;;;4.85;;
12968;SDS011;6549;53.128;8.182;2022-12-07T20:22:51;10.27;;;5.35;;
12968;SDS011;6549;53.128;8.182;2022-12-07T20:25:52;8.68;;;4.70;;
12968;SDS011;6549;53.128;8.182;2022-12-07T20:28:52;9.05;;;5.20;;